createdAt,value
2023-03-12T00:00:41.959Z,82.25
2023-03-12T00:01:40.230Z,82.33
2023-03-12T00:02:39.676Z,82.38
2023-03-12T00:03:40.496Z,82.41
2023-03-12T00:04:40.320Z,82.52
2023-03-12T00:05:41.910Z,82.85
2023-03-12T00:06:41.283Z,82.92
2023-03-12T00:07:41.602Z,83.16
2023-03-12T00:08:42.425Z,83.16
2023-03-12T00:09:42.559Z,83.31
2023-03-12T00:10:43.147Z,83.52
2023-03-12T00:11:43.176Z,83.69
2023-03-12T00:12:43.778Z,83.83
2023-03-12T00:13:48.909Z,83.75
2023-03-12T00:14:46.355Z,83.76
2023-03-12T00:15:46.609Z,84.1
2023-03-12T00:16:46.983Z,84.45
2023-03-12T00:17:47.805Z,84.41
2023-03-12T00:18:52.846Z,84.5
2023-03-12T00:19:54.161Z,84.54
2023-03-12T00:20:55.616Z,84.59
2023-03-12T00:21:53.054Z,84.83
2023-03-12T00:22:53.375Z,84.65
2023-03-12T00:23:53.890Z,84.81
2023-03-12T00:24:55.937Z,84.78
2023-03-12T00:25:54.814Z,84.96
2023-03-12T00:26:55.031Z,85.36
2023-03-12T00:27:55.458Z,85.29
2023-03-12T00:28:55.872Z,85.2
2023-03-12T00:29:56.286Z,85.25
2023-03-12T00:30:57.283Z,85.2
2023-03-12T00:31:56.873Z,85.18
2023-03-12T00:32:57.532Z,85.21
2023-03-12T00:33:57.842Z,85.53
2023-03-12T00:34:58.772Z,85.8
2023-03-12T00:36:00.674Z,85.48
2023-03-12T00:36:58.905Z,85.39
2023-03-12T00:37:59.303Z,85.33
2023-03-12T00:39:00.561Z,85.29
2023-03-12T00:40:01.049Z,84.98
2023-03-12T00:41:01.164Z,85.04
2023-03-12T00:42:01.677Z,85.06
2023-03-12T00:43:02.007Z,85.28
2023-03-12T00:44:03.560Z,85.11
2023-03-12T00:45:02.834Z,85.13
2023-03-12T00:46:03.202Z,85.11
2023-03-12T00:47:03.870Z,85.14
2023-03-12T00:48:04.387Z,85.34
2023-03-12T00:49:04.796Z,85.65
2023-03-12T00:50:05.718Z,85.55
2023-03-12T00:51:05.542Z,85.62
2023-03-12T00:52:06.051Z,85.53
2023-03-12T00:53:05.926Z,85.54
2023-03-12T00:54:06.373Z,86.04
2023-03-12T00:55:07.358Z,86.14
2023-03-12T00:56:07.717Z,86.03
2023-03-12T00:57:07.722Z,85.97
2023-03-12T00:58:07.726Z,86.01
2023-03-12T00:59:08.359Z,85.98
2023-03-12T01:00:10.643Z,85.97
2023-03-12T01:01:09.976Z,85.97
2023-03-12T01:02:09.661Z,86.08
2023-03-12T01:03:09.913Z,86.22
2023-03-12T01:04:10.423Z,86.39
2023-03-12T01:05:12.591Z,86.08
2023-03-12T01:06:11.055Z,85.96
2023-03-12T01:07:11.373Z,85.81
2023-03-12T01:08:12.211Z,85.72
2023-03-12T01:09:12.415Z,86.05
2023-03-12T01:10:15.456Z,85.83
2023-03-12T01:11:18.063Z,85.95
2023-03-12T01:12:15.259Z,85.98
2023-03-12T01:13:16.014Z,85.8
2023-03-12T01:14:16.221Z,85.75
2023-03-12T01:15:18.290Z,85.56
2023-03-12T01:16:17.117Z,85.53
2023-03-12T01:17:17.393Z,85.42
2023-03-12T01:18:18.422Z,85.34
2023-03-12T01:19:19.544Z,85.35
2023-03-12T01:20:19.617Z,85.26
2023-03-12T01:21:19.661Z,85.32
2023-03-12T01:22:20.144Z,85.35
2023-03-12T01:23:20.605Z,85.11
2023-03-12T01:24:20.922Z,85.17
2023-03-12T01:25:21.331Z,85.23
2023-03-12T01:26:21.741Z,85.12
2023-03-12T01:27:22.161Z,85.08
2023-03-12T01:28:24.014Z,85.39
2023-03-12T01:29:22.852Z,85.34
2023-03-12T01:30:23.204Z,85.43
2023-03-12T01:31:23.611Z,85.48
2023-03-12T01:32:23.964Z,84.96
2023-03-12T01:33:24.413Z,84.84
2023-03-12T01:34:24.872Z,84.59
2023-03-12T01:35:25.950Z,84.95
2023-03-12T01:36:28.886Z,84.56
2023-03-12T01:37:27.560Z,84.66
2023-03-12T01:38:26.952Z,84.59
2023-03-12T01:39:27.058Z,84.64
2023-03-12T01:40:27.378Z,84.73
2023-03-12T01:41:29.516Z,84.52
2023-03-12T01:42:28.312Z,84.69
2023-03-12T01:43:31.688Z,85.25
2023-03-12T01:44:30.173Z,84.89
2023-03-12T01:46:39.386Z,84.74
2023-03-12T01:47:36.841Z,85
2023-03-12T01:48:42.774Z,84.9
2023-03-12T01:49:40.328Z,84.78
2023-03-12T01:50:40.534Z,84.67
2023-03-12T01:51:50.271Z,84.74
2023-03-12T01:52:42.700Z,84.9
2023-03-12T01:53:47.209Z,85.06
2023-03-12T01:55:48.150Z,84.84
2023-03-12T01:56:49.082Z,84.83
2023-03-12T01:58:56.276Z,85.28
2023-03-12T02:00:56.521Z,84.9
2023-03-12T02:01:57.517Z,84.86
2023-03-12T02:04:02.300Z,84.88
2023-03-12T02:08:13.337Z,85.05
2023-03-12T02:12:19.901Z,84.99
2023-03-12T02:13:20.630Z,84.87
2023-03-12T02:14:20.937Z,85.08
2023-03-12T02:15:21.055Z,85.23
2023-03-12T02:16:21.602Z,85.58
2023-03-12T02:17:21.908Z,85.66
2023-03-12T02:18:22.298Z,85.63
2023-03-12T02:21:27.541Z,85.84
2023-03-12T02:22:25.288Z,85.61
2023-03-12T02:24:38.614Z,85.54
2023-03-12T02:25:41.083Z,85.24
2023-03-12T02:26:35.764Z,85.48
2023-03-12T02:27:37.005Z,85.74
2023-03-12T02:28:36.390Z,85.61
2023-03-12T02:29:37.526Z,85.8
2023-03-12T02:30:36.907Z,85.57
2023-03-12T02:31:43.094Z,85.69
2023-03-12T02:32:38.786Z,85.59
2023-03-12T02:33:36.216Z,85.29
2023-03-12T02:34:36.447Z,85.29
2023-03-12T02:35:37.511Z,85.39
2023-03-12T02:36:37.893Z,85.42
2023-03-12T02:38:45.189Z,84.69
2023-03-12T02:39:44.963Z,84.63
2023-03-12T02:40:47.741Z,84.55
2023-03-12T02:42:47.446Z,83.92
2023-03-12T02:44:51.974Z,83.42
2023-03-12T02:45:55.589Z,83.06
2023-03-12T02:46:56.072Z,83.1
2023-03-12T02:47:54.610Z,82.6
2023-03-12T02:48:55.241Z,82.44
2023-03-12T02:49:54.151Z,82.53
2023-03-12T02:50:54.560Z,82.65
2023-03-12T02:51:54.946Z,82.64
2023-03-12T02:52:55.402Z,82.68
2023-03-12T02:53:55.840Z,82.73
2023-03-12T02:54:56.121Z,82.93
2023-03-12T02:55:56.441Z,83.14
2023-03-12T02:56:57.271Z,83.25
2023-03-12T02:57:57.382Z,83.32
2023-03-12T02:58:58.098Z,83.45
2023-03-12T02:59:58.218Z,83.67
2023-03-12T03:00:58.578Z,83.78
2023-03-12T03:02:00.213Z,83.91
2023-03-12T03:03:00.178Z,84.1
2023-03-12T03:04:00.862Z,84
2023-03-12T03:05:00.090Z,83.91
2023-03-12T03:06:00.507Z,83.91
2023-03-12T03:07:01.504Z,83.77
2023-03-12T03:08:01.332Z,83.38
2023-03-12T03:09:02.072Z,83.1
2023-03-12T03:10:02.676Z,82.68
2023-03-12T03:11:02.380Z,82.45
2023-03-12T03:12:03.005Z,82.6
2023-03-12T03:13:03.208Z,82.88
2023-03-12T03:14:03.529Z,83.14
2023-03-12T03:15:04.947Z,82.85
2023-03-12T03:16:05.057Z,82.86
2023-03-12T03:17:05.160Z,82.89
2023-03-12T03:18:05.463Z,82.85
2023-03-12T03:19:06.270Z,82.44
2023-03-12T03:20:08.030Z,82.29
2023-03-12T03:21:08.615Z,82.32
2023-03-12T03:22:06.644Z,82.43
2023-03-12T03:23:07.311Z,82.73
2023-03-12T03:24:08.112Z,82.56
2023-03-12T03:25:10.150Z,82.4
2023-03-12T03:26:08.445Z,82.28
2023-03-12T03:27:08.734Z,82.36
2023-03-12T03:28:09.055Z,82.36
2023-03-12T03:29:09.568Z,82.35
2023-03-12T03:30:10.909Z,82.46
2023-03-12T03:31:10.236Z,82.29
2023-03-12T03:32:10.521Z,82
2023-03-12T03:33:10.928Z,81.93
2023-03-12T03:34:11.925Z,81.82
2023-03-12T03:35:12.481Z,81.97
2023-03-12T03:36:14.120Z,82.32
2023-03-12T03:37:12.897Z,82.27
2023-03-12T03:38:13.582Z,82.1
2023-03-12T03:39:13.825Z,82.06
2023-03-12T03:40:14.036Z,82.06
2023-03-12T03:41:14.556Z,81.79
2023-03-12T03:42:14.876Z,82.06
2023-03-12T03:43:15.390Z,82.04
2023-03-12T03:44:15.705Z,81.89
2023-03-12T03:45:16.340Z,82.22
2023-03-12T03:46:16.933Z,82.41
2023-03-12T03:47:16.852Z,82.52
2023-03-12T03:48:17.885Z,82.49
2023-03-12T03:49:17.683Z,82.36
2023-03-12T03:50:18.206Z,82.77
2023-03-12T03:51:18.918Z,82.68
2023-03-12T03:52:18.737Z,82.78
2023-03-12T03:53:19.980Z,82.83
2023-03-12T03:54:19.979Z,82.71
2023-03-12T03:55:19.792Z,82.93
2023-03-12T03:56:20.604Z,82.91
2023-03-12T03:57:20.725Z,82.95
2023-03-12T03:58:21.430Z,83.05
2023-03-12T03:59:21.548Z,83.07
2023-03-12T04:00:22.265Z,83.03
2023-03-12T04:01:22.287Z,83.16
2023-03-12T04:02:22.790Z,83.35
2023-03-12T04:03:23.072Z,83.32
2023-03-12T04:04:23.421Z,83.65
2023-03-12T04:05:24.030Z,83.72
2023-03-12T04:06:24.161Z,83.72
2023-03-12T04:07:24.515Z,83.94
2023-03-12T04:08:25.080Z,83.99
2023-03-12T04:09:25.201Z,84.06
2023-03-12T04:10:25.632Z,83.9
2023-03-12T04:11:26.326Z,83.95
2023-03-12T04:12:26.409Z,84
2023-03-12T04:13:26.865Z,84.18
2023-03-12T04:14:27.182Z,84.21
2023-03-12T04:15:27.595Z,84.22
2023-03-12T04:16:28.559Z,84.35
2023-03-12T04:17:28.324Z,84.03
2023-03-12T04:18:28.896Z,83.98
2023-03-12T04:19:29.158Z,84
2023-03-12T04:20:29.571Z,84.09
2023-03-12T04:21:29.849Z,84.01
2023-03-12T04:22:30.306Z,84.19
2023-03-12T04:23:30.718Z,84.08
2023-03-12T04:24:30.990Z,84.07
2023-03-12T04:25:31.551Z,84.11
2023-03-12T04:26:31.868Z,84.15
2023-03-12T04:27:32.244Z,84.32
2023-03-12T04:28:34.230Z,84.44
2023-03-12T04:29:33.014Z,84.59
2023-03-12T04:30:33.636Z,84.58
2023-03-12T04:31:33.861Z,84.49
2023-03-12T04:32:34.350Z,84.16
2023-03-12T04:33:37.960Z,84.07
2023-03-12T04:34:35.306Z,84.25
2023-03-12T04:35:36.095Z,84.33
2023-03-12T04:36:39.406Z,84.22
2023-03-12T04:37:36.729Z,84.34
2023-03-12T04:38:37.265Z,84.38
2023-03-12T04:39:37.584Z,84.43
2023-03-12T04:40:38.109Z,84.32
2023-03-12T04:41:39.158Z,84.27
2023-03-12T04:42:39.855Z,84.2
2023-03-12T04:43:39.869Z,84.14
2023-03-12T04:44:40.392Z,84.19
2023-03-12T04:45:40.504Z,84.5
2023-03-12T04:46:41.400Z,84.43
2023-03-12T04:47:42.355Z,84.62
2023-03-12T04:48:41.837Z,84.57
2023-03-12T04:49:42.382Z,84.43
2023-03-12T04:50:42.424Z,84.24
2023-03-12T04:51:43.101Z,84.46
2023-03-12T04:52:43.207Z,84.45
2023-03-12T04:53:43.764Z,84.23
2023-03-12T04:54:47.836Z,83.98
2023-03-12T04:55:45.485Z,84.1
2023-03-12T04:56:45.790Z,83.93
2023-03-12T04:57:46.324Z,84.06
2023-03-12T04:58:46.733Z,84.15
2023-03-12T04:59:47.100Z,84.47
2023-03-12T05:00:49.017Z,84.49
2023-03-12T05:01:47.985Z,84.51
2023-03-12T05:02:48.401Z,84.56
2023-03-12T05:03:48.776Z,84.82
2023-03-12T05:04:49.145Z,84.74
2023-03-12T05:05:49.439Z,84.49
2023-03-12T05:06:49.861Z,84.31
2023-03-12T05:07:50.175Z,84.26
2023-03-12T05:08:51.313Z,83.99
2023-03-12T05:09:51.218Z,83.98
2023-03-12T05:10:51.316Z,83.9
2023-03-12T05:11:51.744Z,84.12
2023-03-12T05:12:52.121Z,84.04
2023-03-12T05:13:52.776Z,83.87
2023-03-12T05:14:52.941Z,83.88
2023-03-12T05:15:53.581Z,83.84
2023-03-12T05:16:53.668Z,83.92
2023-03-12T05:17:54.948Z,83.84
2023-03-12T05:18:54.549Z,83.95
2023-03-12T05:19:55.573Z,83.75
2023-03-12T05:21:59.092Z,83.82
2023-03-12T05:22:59.511Z,83.87
2023-03-12T05:24:01.232Z,83.97
2023-03-12T05:25:00.341Z,84.03
2023-03-12T05:26:01.054Z,83.83
2023-03-12T05:27:01.008Z,83.76
2023-03-12T05:28:01.462Z,83.74
2023-03-12T05:29:02.394Z,83.78
2023-03-12T05:30:03.030Z,83.7
2023-03-12T05:31:09.441Z,83.8
2023-03-12T05:32:07.599Z,83.98
2023-03-12T05:33:07.398Z,83.86
2023-03-12T05:34:07.659Z,83.7
2023-03-12T05:35:08.791Z,83.75
2023-03-12T05:36:09.366Z,83.78
2023-03-12T05:37:09.936Z,84.13
2023-03-12T05:38:09.414Z,84.02
2023-03-12T05:39:09.725Z,83.94
2023-03-12T05:40:12.187Z,84.05
2023-03-12T05:42:15.483Z,83.88
2023-03-12T05:43:15.192Z,83.61
2023-03-12T05:44:15.702Z,83.52
2023-03-12T05:45:16.225Z,83.31
2023-03-12T05:46:16.490Z,83.35
2023-03-12T05:47:17.065Z,83.25
2023-03-12T05:48:17.108Z,83.43
2023-03-12T05:49:18.203Z,83.58
2023-03-12T05:50:18.513Z,83.4
2023-03-12T05:51:18.389Z,83.72
2023-03-12T05:52:18.725Z,83.54
2023-03-12T05:53:19.044Z,83.24
2023-03-12T05:54:19.766Z,83.22
2023-03-12T05:55:19.978Z,83.01
2023-03-12T05:56:20.347Z,82.83
2023-03-12T05:57:20.772Z,82.99
2023-03-12T05:58:21.880Z,83.07
2023-03-12T05:59:21.647Z,83.1
2023-03-12T06:00:22.546Z,83.06
2023-03-12T06:01:25.409Z,82.91
2023-03-12T06:02:23.025Z,82.67
2023-03-12T06:03:23.411Z,82.22
2023-03-12T06:04:23.511Z,82.12
2023-03-12T06:05:24.255Z,82.17
2023-03-12T06:06:24.685Z,81.85
2023-03-12T06:07:25.065Z,81.7
2023-03-12T06:08:25.418Z,81.81
2023-03-12T06:09:25.595Z,81.76
2023-03-12T06:10:27.963Z,82.07
2023-03-12T06:11:26.330Z,81.86
2023-03-12T06:12:26.747Z,81.81
2023-03-12T06:13:27.358Z,81.55
2023-03-12T06:14:27.575Z,81.65
2023-03-12T06:15:28.104Z,81.49
2023-03-12T06:16:28.656Z,81.3
2023-03-12T06:17:30.044Z,81.46
2023-03-12T06:18:29.198Z,81.31
2023-03-12T06:19:29.644Z,81.06
2023-03-12T06:20:30.141Z,81.22
2023-03-12T06:21:32.743Z,81.65
2023-03-12T06:22:30.998Z,80.99
2023-03-12T06:23:31.214Z,80.83
2023-03-12T06:24:32.348Z,80.89
2023-03-12T06:25:32.759Z,81.01
2023-03-12T06:26:33.076Z,80.57
2023-03-12T06:27:33.836Z,80.58
2023-03-12T06:28:34.422Z,80.67
2023-03-12T06:29:34.223Z,80.6
2023-03-12T06:30:34.742Z,80.53
2023-03-12T06:31:38.116Z,80.36
2023-03-12T06:32:36.397Z,80.3
2023-03-12T06:33:36.500Z,80.74
2023-03-12T06:34:38.460Z,80.31
2023-03-12T06:35:37.519Z,80.27
2023-03-12T06:36:37.745Z,80.47
2023-03-12T06:37:41.550Z,80.33
2023-03-12T06:38:41.017Z,80.54
2023-03-12T06:39:39.644Z,80.48
2023-03-12T06:40:40.134Z,80.47
2023-03-12T06:41:40.046Z,80.47
2023-03-12T06:42:40.453Z,80.57
2023-03-12T06:43:41.583Z,80.15
2023-03-12T06:44:41.392Z,80.34
2023-03-12T06:45:41.695Z,80.19
2023-03-12T06:46:42.880Z,80.14
2023-03-12T06:47:42.548Z,79.93
2023-03-12T06:48:43.675Z,79.55
2023-03-12T06:49:43.370Z,79.41
2023-03-12T06:50:43.956Z,78.41
2023-03-12T06:51:44.184Z,77.98
2023-03-12T06:52:44.615Z,78.5
2023-03-12T06:53:45.807Z,79
2023-03-12T06:54:45.304Z,78.79
2023-03-12T06:55:46.697Z,78.46
2023-03-12T06:56:46.201Z,78
2023-03-12T06:57:46.596Z,78.24
2023-03-12T06:58:46.923Z,78
2023-03-12T06:59:50.373Z,78.46
2023-03-12T07:00:48.169Z,78.37
2023-03-12T07:01:49.084Z,78.28
2023-03-12T07:02:48.780Z,77.94
2023-03-12T07:03:49.091Z,77.52
2023-03-12T07:04:49.665Z,77.41
2023-03-12T07:05:51.423Z,77.56
2023-03-12T07:06:50.474Z,77.29
2023-03-12T07:07:51.525Z,76.96
2023-03-12T07:08:52.112Z,76.92
2023-03-12T07:09:51.697Z,77.21
2023-03-12T07:10:52.132Z,77.43
2023-03-12T07:11:52.449Z,77.29
2023-03-12T07:12:52.749Z,76.71
2023-03-12T07:13:53.268Z,76.41
2023-03-12T07:14:53.607Z,75.4
2023-03-12T07:15:54.232Z,75.19
2023-03-12T07:16:55.636Z,75.3
2023-03-12T07:17:54.804Z,75.36
2023-03-12T07:18:55.158Z,74.81
2023-03-12T07:19:55.664Z,74.55
2023-03-12T07:20:56.188Z,74.02
2023-03-12T07:21:57.272Z,74.08
2023-03-12T07:22:57.020Z,74.08
2023-03-12T07:23:57.279Z,72.97
2023-03-12T07:24:57.859Z,71.61
2023-03-12T07:25:58.165Z,71.96
2023-03-12T07:26:58.371Z,73.03
2023-03-12T07:27:58.902Z,72.12
2023-03-12T07:28:59.196Z,72.21
2023-03-12T07:29:59.725Z,72.15
2023-03-12T07:31:02.599Z,72.22
2023-03-12T07:32:00.748Z,72.32
2023-03-12T07:33:05.571Z,72.21
2023-03-12T07:34:03.232Z,71.59
2023-03-12T07:35:05.598Z,72.12
2023-03-12T07:36:05.265Z,71.96
2023-03-12T07:37:05.516Z,71.28
2023-03-12T07:38:06.816Z,71.05
2023-03-12T07:39:05.723Z,71.56
2023-03-12T07:40:07.830Z,71.12
2023-03-12T07:41:06.582Z,71.04
2023-03-12T07:42:07.441Z,70.63
2023-03-12T07:43:07.431Z,70.63
2023-03-12T07:44:08.143Z,70.81
2023-03-12T07:45:08.903Z,71.45
2023-03-12T07:46:08.614Z,71.36
2023-03-12T07:47:22.848Z,71.46
2023-03-12T07:48:10.761Z,71.92
2023-03-12T07:49:11.123Z,71.87
2023-03-12T07:50:12.540Z,72.03
2023-03-12T07:51:12.761Z,71.66
2023-03-12T07:52:12.291Z,71.27
2023-03-12T07:53:12.879Z,70.84
2023-03-12T07:54:13.102Z,70.45
2023-03-12T07:55:14.042Z,70.68
2023-03-12T07:56:14.211Z,70.74
2023-03-12T07:57:14.589Z,70.33
2023-03-12T07:58:16.482Z,69.82
2023-03-12T07:59:15.386Z,70.2
2023-03-12T08:00:16.265Z,70.56
2023-03-12T08:01:16.285Z,70.76
2023-03-12T08:02:16.429Z,70.91
2023-03-12T08:03:17.162Z,70.58
2023-03-12T08:04:17.235Z,70.64
2023-03-12T08:05:17.977Z,71.16
2023-03-12T08:06:18.156Z,71.05
2023-03-12T08:07:18.577Z,70.48
2023-03-12T08:08:18.849Z,70.69
2023-03-12T08:09:19.332Z,71.07
2023-03-12T08:10:21.167Z,70.68
2023-03-12T08:11:20.985Z,70.68
2023-03-12T08:12:20.492Z,70.59
2023-03-12T08:13:21.314Z,69.94
2023-03-12T08:14:21.326Z,69.86
2023-03-12T08:15:21.851Z,69.23
2023-03-12T08:16:22.180Z,69.69
2023-03-12T08:17:22.456Z,69.68
2023-03-12T08:18:23.301Z,69.93
2023-03-12T08:19:23.400Z,69.84
2023-03-12T08:20:23.713Z,70.06
2023-03-12T08:21:24.434Z,69.86
2023-03-12T08:22:24.439Z,69.17
2023-03-12T08:23:25.264Z,69.28
2023-03-12T08:24:25.471Z,69.01
2023-03-12T08:25:25.799Z,69.09
2023-03-12T08:26:26.221Z,69.37
2023-03-12T08:27:26.526Z,68.7
2023-03-12T08:28:27.347Z,69.15
2023-03-12T08:29:27.550Z,69.24
2023-03-12T08:30:30.165Z,69
2023-03-12T08:31:28.847Z,67.76
2023-03-12T08:32:29.013Z,67.9
2023-03-12T08:33:28.914Z,68.51
2023-03-12T08:34:29.509Z,68.72
2023-03-12T08:35:30.244Z,68.39
2023-03-12T08:36:30.469Z,68.44
2023-03-12T08:37:30.890Z,68.31
2023-03-12T08:38:32.128Z,67.77
2023-03-12T08:39:31.660Z,67.43
2023-03-12T08:40:31.943Z,67.18
2023-03-12T08:41:32.352Z,66.8
2023-03-12T08:42:32.660Z,67.29
2023-03-12T08:43:33.288Z,68.23
2023-03-12T08:44:33.810Z,67.17
2023-03-12T08:45:33.945Z,67.34
2023-03-12T08:46:34.443Z,67.76
2023-03-12T08:47:35.051Z,67.76
2023-03-12T08:48:35.068Z,67.21
2023-03-12T08:49:35.433Z,67.07
2023-03-12T08:50:37.527Z,66.33
2023-03-12T08:51:37.125Z,65.93
2023-03-12T08:52:36.738Z,65.82
2023-03-12T08:53:37.285Z,66.17
2023-03-12T08:54:37.604Z,65.91
2023-03-12T08:55:37.977Z,66.08
2023-03-12T08:56:41.474Z,66.72
2023-03-12T08:57:39.999Z,66.9
2023-03-12T08:58:39.336Z,66.82
2023-03-12T08:59:39.645Z,66.41
2023-03-12T09:00:40.166Z,66.01
2023-03-12T09:01:43.643Z,66.05
2023-03-12T09:02:43.934Z,65.36
2023-03-12T09:03:42.037Z,65.29
2023-03-12T09:04:42.144Z,65.19
2023-03-12T09:05:43.061Z,65.15
2023-03-12T09:06:43.376Z,66.08
2023-03-12T09:07:43.344Z,65.64
2023-03-12T09:08:45.039Z,66.1
2023-03-12T09:09:44.620Z,66.38
2023-03-12T09:10:50.272Z,65.95
2023-03-12T09:11:47.721Z,65.02
2023-03-12T09:12:48.129Z,65.56
2023-03-12T09:14:28.132Z,65.63
2023-03-12T09:15:03.092Z,65.62
2023-03-12T09:15:51.164Z,65.32
2023-03-12T09:16:51.850Z,65.03
2023-03-12T09:17:52.565Z,64.74
2023-03-12T09:18:52.878Z,64.25
2023-03-12T09:19:52.972Z,64.15
2023-03-12T09:20:53.401Z,64.02
2023-03-12T09:21:54.011Z,63.32
2023-03-12T09:22:54.098Z,62.79
2023-03-12T09:23:54.677Z,62.23
2023-03-12T09:24:55.375Z,62.68
2023-03-12T09:25:55.861Z,62.62
2023-03-12T09:26:58.675Z,62.67
2023-03-12T09:27:56.168Z,61.76
2023-03-12T09:28:56.420Z,60.62
2023-03-12T09:30:00.456Z,61.51
2023-03-12T09:31:02.151Z,60.96
2023-03-12T09:31:59.619Z,60.85
2023-03-12T09:32:59.990Z,60.65
2023-03-12T09:34:00.657Z,61.57
2023-03-12T09:35:00.559Z,61.39
2023-03-12T09:36:01.174Z,62.18
2023-03-12T09:37:01.293Z,61.24
2023-03-12T09:38:01.451Z,61.02
2023-03-12T09:39:02.734Z,61.15
2023-03-12T09:40:03.351Z,61.5
2023-03-12T09:41:05.513Z,61.94
2023-03-12T09:42:06.588Z,61.75
2023-03-12T09:43:09.827Z,61.21
2023-03-12T09:46:26.756Z,61.49
2023-03-12T09:47:30.133Z,60.95
2023-03-12T09:48:34.240Z,61.42
2023-03-12T09:53:46.259Z,61.12
2023-03-12T09:54:52.707Z,60.91
2023-03-12T09:55:49.597Z,60.82
2023-03-12T09:56:47.283Z,60.45
2023-03-12T09:57:49.542Z,60.32
2023-03-12T09:58:49.867Z,60.54
2023-03-12T09:59:47.922Z,60.95
2023-03-12T10:00:48.353Z,60.34
2023-03-12T10:01:54.809Z,60.63
2023-03-12T10:27:52.076Z,57.59
2023-03-12T10:29:56.226Z,56.66
2023-03-12T10:33:02.896Z,56.69
2023-03-12T10:34:01.571Z,56.73
2023-03-12T10:35:04.845Z,56.88
2023-03-12T10:36:06.337Z,57.05
2023-03-12T10:38:13.370Z,56.16
2023-03-12T10:39:16.051Z,56.09
2023-03-12T10:43:19.546Z,57.84
2023-03-12T10:44:25.084Z,57.36
2023-03-12T10:48:27.067Z,57.93
2023-03-12T10:50:34.351Z,58.11
2023-03-12T10:51:31.591Z,57.64
2023-03-12T10:52:32.005Z,57.95
2023-03-12T10:54:38.158Z,57.46
2023-03-12T10:55:36.024Z,56.75
2023-03-12T10:57:41.787Z,57.19
2023-03-12T10:58:44.033Z,57.58
2023-03-12T10:59:46.684Z,58.23
2023-03-12T11:01:49.869Z,58.02
2023-03-12T11:02:55.088Z,58.67
2023-03-12T11:04:54.926Z,57.61
2023-03-12T11:05:59.825Z,56.65
2023-03-12T11:08:01.597Z,58.18
2023-03-12T11:09:16.794Z,58.13
2023-03-12T11:11:06.228Z,57.83
2023-03-12T11:16:27.195Z,57.39
2023-03-12T11:17:23.429Z,56.78
2023-03-12T11:19:31.305Z,56.21
2023-03-12T11:20:30.353Z,55.87
2023-03-12T11:21:30.667Z,55.82
2023-03-12T11:22:34.720Z,55.47
2023-03-12T11:23:32.113Z,55.4
2023-03-12T11:24:32.432Z,56.01
2023-03-12T11:25:32.628Z,55.73
2023-03-12T11:27:51.118Z,56.2
2023-03-12T11:28:44.844Z,56.21
2023-03-12T11:29:48.911Z,56.85
2023-03-12T11:30:47.778Z,56.5
2023-03-12T11:32:50.661Z,56.81
2023-03-12T11:33:53.167Z,57
2023-03-12T11:34:51.806Z,56.73
2023-03-12T12:26:09.213Z,54.2
2023-03-12T12:36:28.261Z,54.67
2023-03-12T12:41:50.138Z,53.13
2023-03-12T12:43:57.127Z,52.62
2023-03-12T12:44:57.825Z,53.12
2023-03-12T12:45:59.695Z,53.74
2023-03-12T12:47:03.974Z,53.75
2023-03-12T12:50:04.742Z,53.91
2023-03-12T12:51:08.778Z,54.13
2023-03-12T13:01:40.916Z,52.07
2023-03-12T13:02:43.593Z,51.52
2023-03-12T13:03:42.176Z,51.11
2023-03-12T13:04:41.902Z,51.63
2023-03-12T13:07:47.025Z,50.79
2023-03-12T13:09:51.623Z,50.8
2023-03-12T13:11:55.581Z,50.67
2023-03-12T13:12:56.792Z,51.21
2023-03-12T13:14:58.539Z,51.09
2023-03-12T13:18:18.351Z,51.25
2023-03-12T13:20:19.187Z,50.61
2023-03-12T13:27:41.109Z,49.42
2023-03-12T13:29:40.957Z,49.88
2023-03-12T13:31:41.809Z,51.51
2023-03-12T13:34:46.949Z,52.37
2023-03-12T13:36:52.303Z,52.42
2023-03-12T13:41:00.181Z,52.7
2023-03-12T13:42:01.186Z,52.54
2023-03-12T13:48:18.138Z,52.54
2023-03-12T13:49:18.473Z,52.18
2023-03-12T13:50:17.098Z,52.61
2023-03-12T13:51:21.661Z,53.01
2023-03-12T13:54:28.008Z,53.05
2023-03-12T13:55:29.057Z,53.47
2023-03-12T13:56:29.563Z,53.56
2023-03-12T13:58:27.900Z,53.62
2023-03-12T13:59:29.993Z,53.58
2023-03-12T14:00:38.291Z,53.54
2023-03-12T14:01:36.798Z,53.72
2023-03-12T14:02:37.174Z,53.84
2023-03-12T14:03:42.460Z,54.08
2023-03-12T14:04:39.589Z,54
2023-03-12T14:17:05.431Z,51.68
2023-03-12T14:19:06.682Z,51.86
2023-03-12T14:21:15.451Z,51.87
2023-03-12T14:22:14.470Z,51.55
2023-03-12T14:23:17.460Z,52.13
2023-03-12T14:26:27.476Z,52.03
2023-03-12T14:27:25.726Z,52.01
2023-03-12T14:28:24.558Z,51.95
2023-03-12T14:30:32.268Z,51.9
2023-03-12T14:31:25.915Z,51.29
2023-03-12T14:32:32.609Z,51.56
2023-03-12T14:34:38.812Z,51.62
2023-03-12T14:37:44.133Z,52.96
2023-03-12T14:38:44.717Z,53.26
2023-03-12T14:42:52.809Z,51.73
2023-03-12T14:43:54.142Z,51.76
2023-03-12T14:47:01.025Z,51.81
2023-03-12T14:47:59.403Z,51.6
2023-03-12T14:48:59.683Z,51.88
2023-03-12T14:50:00.205Z,51.38
2023-03-12T14:51:01.581Z,51.49
2023-03-12T14:52:00.685Z,51.28
2023-03-12T14:56:44.614Z,53.22
2023-03-12T14:57:42.157Z,52.33
2023-03-12T14:58:45.759Z,52.54
2023-03-12T14:59:55.788Z,52.63
2023-03-12T15:00:57.433Z,52.69
2023-03-12T15:01:50.857Z,51.98
2023-03-12T15:02:52.649Z,51.97
2023-03-12T15:03:57.395Z,52.48
2023-03-12T15:04:57.893Z,52.23
2023-03-12T15:05:56.340Z,52.37
2023-03-12T15:06:59.843Z,52.61
2023-03-12T15:08:03.050Z,52.14
2023-03-12T15:09:03.835Z,51.94
2023-03-12T15:10:06.373Z,52.15
2023-03-12T15:11:04.274Z,52.58
2023-03-12T15:12:08.581Z,52.29
2023-03-12T15:13:06.327Z,52.23
2023-03-12T15:14:14.447Z,52.63
2023-03-12T15:15:10.961Z,52.36
2023-03-12T15:16:09.158Z,52.65
2023-03-12T15:17:14.975Z,52.81
2023-03-12T15:19:21.732Z,53.67
2023-03-12T15:20:21.022Z,53.37
2023-03-12T15:21:21.348Z,53.47
2023-03-12T15:22:22.572Z,53.4
2023-03-12T15:23:21.618Z,53.39
2023-03-12T15:24:21.450Z,53.7
2023-03-12T15:25:32.019Z,53.56
2023-03-12T15:26:30.821Z,53.94
2023-03-12T15:27:33.541Z,53.89
2023-03-12T15:28:33.102Z,54.03
2023-03-12T15:29:31.313Z,53.96
2023-03-12T15:30:32.843Z,54.45
2023-03-12T15:32:38.119Z,54.77
2023-03-12T15:33:36.262Z,54.85
2023-03-12T15:34:39.029Z,55.16
2023-03-12T15:35:43.240Z,55.36
2023-03-12T15:36:49.804Z,55.71
2023-03-12T15:37:50.852Z,55.67
2023-03-12T15:38:53.460Z,55.83
2023-03-12T15:39:49.909Z,55.86
2023-03-12T15:40:52.486Z,55.67
2023-03-12T15:41:51.033Z,55.98
2023-03-12T15:42:50.652Z,56.09
2023-03-12T15:43:56.440Z,56.42
2023-03-12T15:44:57.218Z,56.11
2023-03-12T15:46:02.083Z,56.51
2023-03-12T15:47:09.752Z,56.26
2023-03-12T15:48:03.470Z,56.44
2023-03-12T15:49:02.776Z,56.46
2023-03-12T15:50:12.517Z,56.67
2023-03-12T15:56:23.082Z,57.4
2023-03-12T15:57:24.136Z,57.49
2023-03-12T15:59:28.362Z,57.63
2023-03-12T16:01:28.534Z,57.97
2023-03-12T16:03:30.741Z,58.1
2023-03-12T16:04:31.151Z,58.44
2023-03-12T16:05:34.843Z,58.61
2023-03-12T16:06:32.186Z,58.52
2023-03-12T16:07:32.793Z,58.65
2023-03-12T16:09:35.961Z,59.04
2023-03-12T16:10:37.528Z,59.26
2023-03-12T16:11:38.574Z,59.31
2023-03-12T16:12:38.074Z,59.28
2023-03-12T16:13:37.443Z,59.41
2023-03-12T16:14:38.286Z,59.56
2023-03-12T16:15:39.308Z,59.6
2023-03-12T16:16:39.018Z,59.83
2023-03-12T16:17:39.124Z,59.95
2023-03-12T16:18:40.002Z,59.69
2023-03-12T16:19:39.993Z,59.71
2023-03-12T16:20:40.261Z,59.92
2023-03-12T16:21:40.890Z,59.97
2023-03-12T16:22:44.676Z,60.21
2023-03-12T16:23:43.599Z,60.68
2023-03-12T16:24:42.362Z,60.99
2023-03-12T16:25:51.676Z,60.79
2023-03-12T16:28:48.885Z,60.83
2023-03-12T16:29:48.384Z,60.76
2023-03-12T16:30:48.904Z,60.79
2023-03-12T16:32:50.733Z,60.96
2023-03-12T16:33:51.009Z,61.01
2023-03-12T16:34:51.524Z,60.93
2023-03-12T16:35:52.604Z,61.07
2023-03-12T16:36:52.891Z,61.31
2023-03-12T16:37:52.729Z,61.3
2023-03-12T16:38:55.943Z,61.41
2023-03-12T16:39:54.831Z,61.56
2023-03-12T16:40:54.385Z,61.67
2023-03-12T16:41:55.679Z,61.92
2023-03-12T16:42:55.759Z,61.83
2023-03-12T16:43:55.658Z,62.12
2023-03-12T16:44:55.596Z,62.18
2023-03-12T16:45:55.826Z,62.09
2023-03-12T16:46:56.578Z,62.32
2023-03-12T16:49:01.825Z,62.66
2023-03-12T16:50:01.671Z,62.75
2023-03-12T16:51:02.105Z,62.79
2023-03-12T16:52:03.418Z,62.79
2023-03-12T16:53:03.717Z,63.05